sensor_id;sensor_type;location;lat;lon;timestamp;P1;durP1;ratioP1;P2;durP2;ratioP2
2396;SDS011;1209;48.410;9.054;2022-10-16T00:00:32;4.87;;;3.87;;
2396;SDS011;1209;48.410;9.054;2022-10-16T00:02:59;3.10;;;2.13;;
2396;SDS011;1209;48.410;9.054;2022-10-16T00:05:24;2.83;;;2.27;;
2396;SDS011;1209;48.410;9.054;2022-10-16T00:07:49;1.90;;;1.80;;
2396;SDS011;1209;48.410;9.054;2022-10-16T00:10:15;2.40;;;1.53;;
2396;SDS011;1209;48.410;9.054;2022-10-16T00:12:40;2.00;;;1.80;;
2396;SDS011;1209;48.410;9.054;2022-10-16T00:15:05;4.07;;;1.73;;
2396;SDS011;1209;48.410;9.054;2022-10-16T00:17:31;1.00;;;1.00;;
2396;SDS011;1209;48.410;9.054;2022-10-16T00:19:57;1.60;;;1.50;;
2396;SDS011;1209;48.410;9.054;2022-10-16T00:22:23;1.37;;;1.27;;
2396;SDS011;1209;48.410;9.054;2022-10-16T00:24:49;1.50;;;1.40;;
2396;SDS011;1209;48.410;9.054;2022-10-16T00:27:14;1.53;;;1.43;;
2396;SDS011;1209;48.410;9.054;2022-10-16T00:29:39;1.70;;;1.60;;
2396;SDS011;1209;48.410;9.054;2022-10-16T00:32:05;1.13;;;1.13;;
2396;SDS011;1209;48.410;9.054;2022-10-16T00:34:30;2.90;;;1.00;;
2396;SDS011;1209;48.410;9.054;2022-10-16T00:36:55;1.10;;;1.00;;
2396;SDS011;1209;48.410;9.054;2022-10-16T00:39:21;1.10;;;1.00;;
2396;SDS011;1209;48.410;9.054;2022-10-16T00:41:47;1.33;;;1.17;;
2396;SDS011;1209;48.410;9.054;2022-10-16T00:47:29;1.30;;;1.20;;
2396;SDS011;1209;48.410;9.054;2022-10-16T00:50:13;1.07;;;1.07;;
2396;SDS011;1209;48.410;9.054;2022-10-16T00:52:55;1.03;;;1.03;;
2396;SDS011;1209;48.410;9.054;2022-10-16T00:55:22;4.03;;;1.00;;
2396;SDS011;1209;48.410;9.054;2022-10-16T00:57:49;3.30;;;1.13;;
2396;SDS011;1209;48.410;9.054;2022-10-16T01:00:16;1.70;;;1.23;;
2396;SDS011;1209;48.410;9.054;2022-10-16T01:02:44;0.93;;;0.93;;
2396;SDS011;1209;48.410;9.054;2022-10-16T01:05:09;1.23;;;1.13;;
2396;SDS011;1209;48.410;9.054;2022-10-16T01:07:58;1.80;;;1.17;;
2396;SDS011;1209;48.410;9.054;2022-10-16T01:10:35;0.90;;;0.90;;
2396;SDS011;1209;48.410;9.054;2022-10-16T01:16:05;0.90;;;0.90;;
2396;SDS011;1209;48.410;9.054;2022-10-16T01:32:35;1.00;;;1.00;;
2396;SDS011;1209;48.410;9.054;2022-10-16T01:35:09;1.33;;;0.97;;
2396;SDS011;1209;48.410;9.054;2022-10-16T01:37:44;0.90;;;0.90;;
2396;SDS011;1209;48.410;9.054;2022-10-16T01:40:15;0.87;;;0.83;;
2396;SDS011;1209;48.410;9.054;2022-10-16T01:42:48;0.80;;;0.80;;
2396;SDS011;1209;48.410;9.054;2022-10-16T01:45:20;2.03;;;0.90;;
2396;SDS011;1209;48.410;9.054;2022-10-16T01:47:46;2.30;;;1.00;;
2396;SDS011;1209;48.410;9.054;2022-10-16T01:50:14;0.90;;;0.80;;
2396;SDS011;1209;48.410;9.054;2022-10-16T01:52:43;1.33;;;1.00;;
2396;SDS011;1209;48.410;9.054;2022-10-16T01:55:12;1.00;;;1.00;;
2396;SDS011;1209;48.410;9.054;2022-10-16T01:57:41;1.10;;;1.00;;
2396;SDS011;1209;48.410;9.054;2022-10-16T02:00:11;0.77;;;0.77;;
2396;SDS011;1209;48.410;9.054;2022-10-16T02:02:43;1.20;;;1.10;;
2396;SDS011;1209;48.410;9.054;2022-10-16T02:05:16;0.70;;;0.70;;
2396;SDS011;1209;48.410;9.054;2022-10-16T02:07:48;1.27;;;1.13;;
2396;SDS011;1209;48.410;9.054;2022-10-16T02:10:14;1.07;;;1.00;;
2396;SDS011;1209;48.410;9.054;2022-10-16T02:12:41;0.90;;;0.90;;
2396;SDS011;1209;48.410;9.054;2022-10-16T02:15:12;1.00;;;0.93;;
2396;SDS011;1209;48.410;9.054;2022-10-16T02:17:37;0.90;;;0.90;;
2396;SDS011;1209;48.410;9.054;2022-10-16T02:20:03;1.13;;;1.07;;
2396;SDS011;1209;48.410;9.054;2022-10-16T02:22:31;4.93;;;1.30;;
2396;SDS011;1209;48.410;9.054;2022-10-16T02:27:35;1.13;;;0.90;;
2396;SDS011;1209;48.410;9.054;2022-10-16T02:32:40;1.30;;;1.20;;
2396;SDS011;1209;48.410;9.054;2022-10-16T02:35:08;1.10;;;1.10;;
2396;SDS011;1209;48.410;9.054;2022-10-16T02:37:34;1.00;;;1.00;;
2396;SDS011;1209;48.410;9.054;2022-10-16T02:40:02;1.20;;;1.10;;
2396;SDS011;1209;48.410;9.054;2022-10-16T02:42:33;1.10;;;1.10;;
2396;SDS011;1209;48.410;9.054;2022-10-16T02:45:00;1.40;;;1.30;;
2396;SDS011;1209;48.410;9.054;2022-10-16T02:47:25;1.60;;;1.50;;
2396;SDS011;1209;48.410;9.054;2022-10-16T02:49:50;1.37;;;1.27;;
2396;SDS011;1209;48.410;9.054;2022-10-16T02:52:16;8.93;;;1.13;;
2396;SDS011;1209;48.410;9.054;2022-10-16T02:54:41;1.33;;;1.23;;
2396;SDS011;1209;48.410;9.054;2022-10-16T02:57:06;1.47;;;1.37;;
2396;SDS011;1209;48.410;9.054;2022-10-16T02:59:32;1.47;;;1.13;;
2396;SDS011;1209;48.410;9.054;2022-10-16T03:01:57;1.63;;;1.53;;
2396;SDS011;1209;48.410;9.054;2022-10-16T03:04:23;1.50;;;1.40;;
2396;SDS011;1209;48.410;9.054;2022-10-16T03:06:48;1.07;;;1.07;;
2396;SDS011;1209;48.410;9.054;2022-10-16T03:09:14;1.27;;;1.20;;
2396;SDS011;1209;48.410;9.054;2022-10-16T03:11:39;1.03;;;1.03;;
2396;SDS011;1209;48.410;9.054;2022-10-16T03:14:04;1.60;;;1.37;;
2396;SDS011;1209;48.410;9.054;2022-10-16T03:16:30;1.33;;;1.27;;
2396;SDS011;1209;48.410;9.054;2022-10-16T03:18:55;2.23;;;1.50;;
2396;SDS011;1209;48.410;9.054;2022-10-16T03:21:20;1.80;;;1.20;;
2396;SDS011;1209;48.410;9.054;2022-10-16T03:23:46;1.80;;;1.70;;
2396;SDS011;1209;48.410;9.054;2022-10-16T03:26:11;1.53;;;1.37;;
2396;SDS011;1209;48.410;9.054;2022-10-16T03:28:37;2.10;;;1.77;;
2396;SDS011;1209;48.410;9.054;2022-10-16T03:31:02;1.60;;;1.50;;
2396;SDS011;1209;48.410;9.054;2022-10-16T03:33:27;3.10;;;1.77;;
2396;SDS011;1209;48.410;9.054;2022-10-16T03:35:53;4.03;;;1.73;;
2396;SDS011;1209;48.410;9.054;2022-10-16T03:38:19;2.23;;;1.60;;
2396;SDS011;1209;48.410;9.054;2022-10-16T03:40:45;2.17;;;1.83;;
2396;SDS011;1209;48.410;9.054;2022-10-16T03:43:11;2.00;;;1.63;;
2396;SDS011;1209;48.410;9.054;2022-10-16T03:45:36;2.20;;;2.00;;
2396;SDS011;1209;48.410;9.054;2022-10-16T03:48:01;2.00;;;1.80;;
2396;SDS011;1209;48.410;9.054;2022-10-16T03:50:28;1.93;;;1.83;;
2396;SDS011;1209;48.410;9.054;2022-10-16T03:52:53;1.83;;;1.40;;
2396;SDS011;1209;48.410;9.054;2022-10-16T03:55:19;6.03;;;4.90;;
2396;SDS011;1209;48.410;9.054;2022-10-16T03:57:44;1.67;;;1.50;;
2396;SDS011;1209;48.410;9.054;2022-10-16T04:00:10;1.90;;;1.80;;
2396;SDS011;1209;48.410;9.054;2022-10-16T04:02:35;2.33;;;1.87;;
2396;SDS011;1209;48.410;9.054;2022-10-16T04:05:01;1.60;;;1.50;;
2396;SDS011;1209;48.410;9.054;2022-10-16T04:07:26;4.10;;;1.67;;
2396;SDS011;1209;48.410;9.054;2022-10-16T04:09:51;2.83;;;1.83;;
2396;SDS011;1209;48.410;9.054;2022-10-16T04:12:17;2.23;;;2.03;;
2396;SDS011;1209;48.410;9.054;2022-10-16T04:14:42;2.67;;;1.80;;
2396;SDS011;1209;48.410;9.054;2022-10-16T04:17:07;3.37;;;1.83;;
2396;SDS011;1209;48.410;9.054;2022-10-16T04:19:33;12.13;;;1.97;;
2396;SDS011;1209;48.410;9.054;2022-10-16T04:21:58;3.70;;;1.53;;
2396;SDS011;1209;48.410;9.054;2022-10-16T04:24:23;4.77;;;2.50;;
2396;SDS011;1209;48.410;9.054;2022-10-16T04:26:48;2.40;;;1.53;;
2396;SDS011;1209;48.410;9.054;2022-10-16T04:29:14;1.77;;;1.67;;
2396;SDS011;1209;48.410;9.054;2022-10-16T04:31:39;2.07;;;1.83;;
2396;SDS011;1209;48.410;9.054;2022-10-16T04:34:04;2.10;;;1.87;;
2396;SDS011;1209;48.410;9.054;2022-10-16T04:36:30;6.10;;;2.10;;
2396;SDS011;1209;48.410;9.054;2022-10-16T04:38:55;4.10;;;2.17;;
2396;SDS011;1209;48.410;9.054;2022-10-16T04:41:21;1.67;;;1.40;;
2396;SDS011;1209;48.410;9.054;2022-10-16T04:43:46;1.77;;;1.43;;
2396;SDS011;1209;48.410;9.054;2022-10-16T04:46:11;3.03;;;2.30;;
2396;SDS011;1209;48.410;9.054;2022-10-16T04:48:37;3.13;;;2.00;;
2396;SDS011;1209;48.410;9.054;2022-10-16T04:51:02;1.63;;;1.53;;
2396;SDS011;1209;48.410;9.054;2022-10-16T04:53:27;2.10;;;1.50;;
2396;SDS011;1209;48.410;9.054;2022-10-16T04:55:53;1.57;;;1.47;;
2396;SDS011;1209;48.410;9.054;2022-10-16T04:58:18;3.30;;;1.50;;
2396;SDS011;1209;48.410;9.054;2022-10-16T05:00:46;2.27;;;2.03;;
2396;SDS011;1209;48.410;9.054;2022-10-16T05:03:12;3.10;;;2.80;;
2396;SDS011;1209;48.410;9.054;2022-10-16T05:05:41;2.43;;;1.80;;
2396;SDS011;1209;48.410;9.054;2022-10-16T05:08:09;5.00;;;2.23;;
2396;SDS011;1209;48.410;9.054;2022-10-16T05:10:35;2.30;;;2.10;;
2396;SDS011;1209;48.410;9.054;2022-10-16T05:13:00;2.50;;;2.30;;
2396;SDS011;1209;48.410;9.054;2022-10-16T05:15:25;2.13;;;1.93;;
2396;SDS011;1209;48.410;9.054;2022-10-16T05:17:54;2.17;;;2.07;;
2396;SDS011;1209;48.410;9.054;2022-10-16T05:20:20;2.30;;;2.10;;
2396;SDS011;1209;48.410;9.054;2022-10-16T05:22:45;1.97;;;1.83;;
2396;SDS011;1209;48.410;9.054;2022-10-16T05:25:11;2.20;;;2.00;;
2396;SDS011;1209;48.410;9.054;2022-10-16T05:27:36;2.07;;;1.77;;
2396;SDS011;1209;48.410;9.054;2022-10-16T05:30:01;1.90;;;1.80;;
2396;SDS011;1209;48.410;9.054;2022-10-16T05:32:27;5.80;;;1.53;;
2396;SDS011;1209;48.410;9.054;2022-10-16T05:34:52;2.10;;;1.90;;
2396;SDS011;1209;48.410;9.054;2022-10-16T05:37:18;3.57;;;1.93;;
2396;SDS011;1209;48.410;9.054;2022-10-16T05:39:44;1.87;;;1.77;;
2396;SDS011;1209;48.410;9.054;2022-10-16T05:42:09;2.03;;;1.93;;
2396;SDS011;1209;48.410;9.054;2022-10-16T05:44:36;1.40;;;1.30;;
2396;SDS011;1209;48.410;9.054;2022-10-16T05:47:01;2.00;;;1.70;;
2396;SDS011;1209;48.410;9.054;2022-10-16T05:49:27;2.00;;;1.90;;
2396;SDS011;1209;48.410;9.054;2022-10-16T05:51:52;1.77;;;1.60;;
2396;SDS011;1209;48.410;9.054;2022-10-16T05:54:19;1.53;;;1.43;;
2396;SDS011;1209;48.410;9.054;2022-10-16T05:56:45;1.67;;;1.50;;
2396;SDS011;1209;48.410;9.054;2022-10-16T05:59:10;2.20;;;2.00;;
2396;SDS011;1209;48.410;9.054;2022-10-16T06:01:36;2.33;;;2.13;;
2396;SDS011;1209;48.410;9.054;2022-10-16T06:04:01;3.33;;;2.50;;
2396;SDS011;1209;48.410;9.054;2022-10-16T06:06:27;2.53;;;2.33;;
2396;SDS011;1209;48.410;9.054;2022-10-16T06:08:53;2.60;;;2.40;;
2396;SDS011;1209;48.410;9.054;2022-10-16T06:11:21;2.20;;;2.00;;
2396;SDS011;1209;48.410;9.054;2022-10-16T06:13:52;1.40;;;1.40;;
2396;SDS011;1209;48.410;9.054;2022-10-16T06:16:25;1.80;;;1.70;;
2396;SDS011;1209;48.410;9.054;2022-10-16T06:18:51;2.80;;;1.93;;
2396;SDS011;1209;48.410;9.054;2022-10-16T06:21:18;1.90;;;1.80;;
2396;SDS011;1209;48.410;9.054;2022-10-16T06:23:45;1.57;;;1.50;;
2396;SDS011;1209;48.410;9.054;2022-10-16T06:26:12;2.03;;;1.93;;
2396;SDS011;1209;48.410;9.054;2022-10-16T06:28:40;1.90;;;1.80;;
2396;SDS011;1209;48.410;9.054;2022-10-16T06:31:08;2.43;;;2.17;;
2396;SDS011;1209;48.410;9.054;2022-10-16T06:33:35;2.70;;;2.10;;
2396;SDS011;1209;48.410;9.054;2022-10-16T06:36:05;3.67;;;2.50;;
2396;SDS011;1209;48.410;9.054;2022-10-16T06:38:33;2.60;;;2.40;;
2396;SDS011;1209;48.410;9.054;2022-10-16T06:40:58;2.33;;;2.17;;
2396;SDS011;1209;48.410;9.054;2022-10-16T06:43:24;2.23;;;2.03;;
2396;SDS011;1209;48.410;9.054;2022-10-16T06:45:53;2.80;;;2.50;;
2396;SDS011;1209;48.410;9.054;2022-10-16T06:48:21;3.40;;;2.73;;
2396;SDS011;1209;48.410;9.054;2022-10-16T06:50:57;4.23;;;2.77;;
2396;SDS011;1209;48.410;9.054;2022-10-16T06:53:34;2.83;;;2.60;;
2396;SDS011;1209;48.410;9.054;2022-10-16T06:56:11;3.80;;;3.30;;
2396;SDS011;1209;48.410;9.054;2022-10-16T06:58:38;5.50;;;4.50;;
2396;SDS011;1209;48.410;9.054;2022-10-16T07:01:04;6.07;;;3.30;;
2396;SDS011;1209;48.410;9.054;2022-10-16T07:03:32;4.23;;;2.87;;
2396;SDS011;1209;48.410;9.054;2022-10-16T07:06:00;3.33;;;2.53;;
2396;SDS011;1209;48.410;9.054;2022-10-16T07:08:27;6.30;;;3.60;;
2396;SDS011;1209;48.410;9.054;2022-10-16T07:11:03;3.07;;;2.87;;
2396;SDS011;1209;48.410;9.054;2022-10-16T07:13:32;3.60;;;3.30;;
2396;SDS011;1209;48.410;9.054;2022-10-16T07:16:04;3.53;;;2.80;;
2396;SDS011;1209;48.410;9.054;2022-10-16T07:18:33;3.60;;;3.30;;
2396;SDS011;1209;48.410;9.054;2022-10-16T07:21:05;3.53;;;3.23;;
2396;SDS011;1209;48.410;9.054;2022-10-16T07:23:32;4.63;;;3.67;;
2396;SDS011;1209;48.410;9.054;2022-10-16T07:25:57;3.70;;;3.37;;
2396;SDS011;1209;48.410;9.054;2022-10-16T07:28:22;4.53;;;4.00;;
2396;SDS011;1209;48.410;9.054;2022-10-16T07:30:48;4.20;;;3.80;;
2396;SDS011;1209;48.410;9.054;2022-10-16T07:33:13;4.27;;;3.83;;
2396;SDS011;1209;48.410;9.054;2022-10-16T07:35:47;3.37;;;3.07;;
2396;SDS011;1209;48.410;9.054;2022-10-16T07:38:16;4.30;;;3.73;;
2396;SDS011;1209;48.410;9.054;2022-10-16T07:40:42;6.60;;;4.33;;
2396;SDS011;1209;48.410;9.054;2022-10-16T07:43:07;2.10;;;2.00;;
2396;SDS011;1209;48.410;9.054;2022-10-16T07:45:33;2.70;;;2.33;;
2396;SDS011;1209;48.410;9.054;2022-10-16T07:47:58;1.13;;;1.13;;
2396;SDS011;1209;48.410;9.054;2022-10-16T07:50:23;2.70;;;2.20;;
2396;SDS011;1209;48.410;9.054;2022-10-16T07:52:48;2.50;;;2.03;;
2396;SDS011;1209;48.410;9.054;2022-10-16T07:55:14;2.27;;;2.17;;
2396;SDS011;1209;48.410;9.054;2022-10-16T07:57:39;2.60;;;1.73;;
2396;SDS011;1209;48.410;9.054;2022-10-16T08:00:05;2.20;;;2.10;;
2396;SDS011;1209;48.410;9.054;2022-10-16T08:02:31;2.27;;;2.17;;
2396;SDS011;1209;48.410;9.054;2022-10-16T08:04:56;1.70;;;1.47;;
2396;SDS011;1209;48.410;9.054;2022-10-16T08:07:22;1.60;;;1.50;;
2396;SDS011;1209;48.410;9.054;2022-10-16T08:09:48;2.00;;;1.80;;
2396;SDS011;1209;48.410;9.054;2022-10-16T08:12:16;1.80;;;1.70;;
2396;SDS011;1209;48.410;9.054;2022-10-16T08:14:41;2.10;;;2.00;;
2396;SDS011;1209;48.410;9.054;2022-10-16T08:17:06;4.30;;;2.23;;
2396;SDS011;1209;48.410;9.054;2022-10-16T08:19:32;2.53;;;2.33;;
2396;SDS011;1209;48.410;9.054;2022-10-16T08:21:59;3.03;;;2.30;;
2396;SDS011;1209;48.410;9.054;2022-10-16T08:24:24;2.43;;;2.00;;
2396;SDS011;1209;48.410;9.054;2022-10-16T08:26:49;2.73;;;2.30;;
2396;SDS011;1209;48.410;9.054;2022-10-16T08:29:15;9.03;;;2.10;;
2396;SDS011;1209;48.410;9.054;2022-10-16T08:31:40;2.63;;;2.33;;
2396;SDS011;1209;48.410;9.054;2022-10-16T08:34:06;2.83;;;2.53;;
2396;SDS011;1209;48.410;9.054;2022-10-16T08:36:31;6.53;;;2.10;;
2396;SDS011;1209;48.410;9.054;2022-10-16T08:38:56;1.87;;;1.77;;
2396;SDS011;1209;48.410;9.054;2022-10-16T08:41:32;3.83;;;2.50;;
2396;SDS011;1209;48.410;9.054;2022-10-16T08:50:02;1.50;;;1.40;;
2396;SDS011;1209;48.410;9.054;2022-10-16T08:52:35;2.17;;;1.60;;
2396;SDS011;1209;48.410;9.054;2022-10-16T08:55:05;1.40;;;1.20;;
2396;SDS011;1209;48.410;9.054;2022-10-16T08:57:31;2.20;;;1.37;;
2396;SDS011;1209;48.410;9.054;2022-10-16T09:00:09;1.30;;;1.20;;
2396;SDS011;1209;48.410;9.054;2022-10-16T09:03:21;2.00;;;1.80;;
2396;SDS011;1209;48.410;9.054;2022-10-16T09:05:49;1.73;;;1.10;;
2396;SDS011;1209;48.410;9.054;2022-10-16T09:13:48;5.93;;;1.60;;
2396;SDS011;1209;48.410;9.054;2022-10-16T09:18:56;1.20;;;1.10;;
2396;SDS011;1209;48.410;9.054;2022-10-16T09:21:30;1.57;;;1.33;;
2396;SDS011;1209;48.410;9.054;2022-10-16T09:24:06;1.10;;;1.10;;
2396;SDS011;1209;48.410;9.054;2022-10-16T09:26:43;1.70;;;1.60;;
2396;SDS011;1209;48.410;9.054;2022-10-16T09:29:12;1.03;;;1.03;;
2396;SDS011;1209;48.410;9.054;2022-10-16T09:31:39;1.17;;;1.07;;
2396;SDS011;1209;48.410;9.054;2022-10-16T09:34:13;1.17;;;1.07;;
2396;SDS011;1209;48.410;9.054;2022-10-16T09:36:51;0.90;;;0.90;;
2396;SDS011;1209;48.410;9.054;2022-10-16T09:39:16;0.87;;;0.83;;
2396;SDS011;1209;48.410;9.054;2022-10-16T09:41:42;1.10;;;0.97;;
2396;SDS011;1209;48.410;9.054;2022-10-16T09:44:18;1.30;;;1.23;;
2396;SDS011;1209;48.410;9.054;2022-10-16T09:46:48;0.80;;;0.80;;
2396;SDS011;1209;48.410;9.054;2022-10-16T09:49:26;1.20;;;0.83;;
2396;SDS011;1209;48.410;9.054;2022-10-16T09:52:02;0.90;;;0.90;;
2396;SDS011;1209;48.410;9.054;2022-10-16T09:54:55;1.40;;;1.23;;
2396;SDS011;1209;48.410;9.054;2022-10-16T09:57:22;1.23;;;0.70;;
2396;SDS011;1209;48.410;9.054;2022-10-16T09:59:48;1.00;;;0.90;;
2396;SDS011;1209;48.410;9.054;2022-10-16T10:02:34;2.80;;;0.90;;
2396;SDS011;1209;48.410;9.054;2022-10-16T10:05:01;2.23;;;1.30;;
2396;SDS011;1209;48.410;9.054;2022-10-16T10:07:28;1.30;;;1.20;;
2396;SDS011;1209;48.410;9.054;2022-10-16T10:10:00;1.00;;;1.00;;
2396;SDS011;1209;48.410;9.054;2022-10-16T10:12:28;1.23;;;1.23;;
2396;SDS011;1209;48.410;9.054;2022-10-16T10:14:57;0.90;;;0.90;;
2396;SDS011;1209;48.410;9.054;2022-10-16T10:17:29;1.00;;;1.00;;
2396;SDS011;1209;48.410;9.054;2022-10-16T10:19:56;1.40;;;1.30;;
2396;SDS011;1209;48.410;9.054;2022-10-16T10:22:32;2.13;;;1.00;;
2396;SDS011;1209;48.410;9.054;2022-10-16T10:36:24;2.20;;;1.23;;
2396;SDS011;1209;48.410;9.054;2022-10-16T10:38:56;1.10;;;1.07;;
2396;SDS011;1209;48.410;9.054;2022-10-16T10:46:47;2.43;;;1.40;;
2396;SDS011;1209;48.410;9.054;2022-10-16T10:50:05;1.67;;;1.23;;
2396;SDS011;1209;48.410;9.054;2022-10-16T10:58:19;2.07;;;0.90;;
2396;SDS011;1209;48.410;9.054;2022-10-16T11:00:31;1.10;;;1.03;;
2396;SDS011;1209;48.410;9.054;2022-10-16T11:06:32;0.80;;;0.80;;
2396;SDS011;1209;48.410;9.054;2022-10-16T11:11:29;0.90;;;0.90;;
2396;SDS011;1209;48.410;9.054;2022-10-16T11:14:00;1.07;;;1.07;;
2396;SDS011;1209;48.410;9.054;2022-10-16T11:16:35;0.83;;;0.83;;
2396;SDS011;1209;48.410;9.054;2022-10-16T11:21:51;0.70;;;0.70;;
2396;SDS011;1209;48.410;9.054;2022-10-16T11:24:37;2.10;;;1.40;;
2396;SDS011;1209;48.410;9.054;2022-10-16T11:27:34;1.33;;;1.23;;
2396;SDS011;1209;48.410;9.054;2022-10-16T11:30:03;1.70;;;1.60;;
2396;SDS011;1209;48.410;9.054;2022-10-16T11:32:32;1.10;;;1.10;;
2396;SDS011;1209;48.410;9.054;2022-10-16T11:35:06;1.33;;;1.17;;
2396;SDS011;1209;48.410;9.054;2022-10-16T11:37:41;1.07;;;1.07;;
2396;SDS011;1209;48.410;9.054;2022-10-16T11:40:19;1.17;;;1.07;;
2396;SDS011;1209;48.410;9.054;2022-10-16T11:43:04;1.70;;;1.60;;
2396;SDS011;1209;48.410;9.054;2022-10-16T11:45:36;1.30;;;1.20;;
2396;SDS011;1209;48.410;9.054;2022-10-16T11:48:24;1.43;;;1.33;;
2396;SDS011;1209;48.410;9.054;2022-10-16T11:50:55;1.43;;;1.33;;
2396;SDS011;1209;48.410;9.054;2022-10-16T11:53:32;2.80;;;1.73;;
2396;SDS011;1209;48.410;9.054;2022-10-16T11:56:03;2.10;;;1.37;;
2396;SDS011;1209;48.410;9.054;2022-10-16T11:58:31;1.63;;;1.13;;
2396;SDS011;1209;48.410;9.054;2022-10-16T12:03:50;1.97;;;1.40;;
2396;SDS011;1209;48.410;9.054;2022-10-16T12:08:58;1.43;;;1.33;;
2396;SDS011;1209;48.410;9.054;2022-10-16T12:16:56;4.20;;;1.70;;
2396;SDS011;1209;48.410;9.054;2022-10-16T12:19:26;2.97;;;1.33;;
2396;SDS011;1209;48.410;9.054;2022-10-16T12:21:57;1.20;;;1.10;;
2396;SDS011;1209;48.410;9.054;2022-10-16T12:24:30;1.37;;;1.33;;
2396;SDS011;1209;48.410;9.054;2022-10-16T12:27:04;1.80;;;1.50;;
2396;SDS011;1209;48.410;9.054;2022-10-16T12:29:38;1.40;;;1.30;;
2396;SDS011;1209;48.410;9.054;2022-10-16T12:32:27;1.33;;;1.23;;
2396;SDS011;1209;48.410;9.054;2022-10-16T12:35:01;1.27;;;1.20;;
2396;SDS011;1209;48.410;9.054;2022-10-16T12:37:31;1.60;;;1.50;;
2396;SDS011;1209;48.410;9.054;2022-10-16T12:39:59;1.20;;;1.10;;
2396;SDS011;1209;48.410;9.054;2022-10-16T12:42:36;1.03;;;1.03;;
2396;SDS011;1209;48.410;9.054;2022-10-16T12:45:02;1.37;;;1.27;;
2396;SDS011;1209;48.410;9.054;2022-10-16T12:47:50;1.27;;;1.17;;
2396;SDS011;1209;48.410;9.054;2022-10-16T12:50:24;1.60;;;1.50;;
2396;SDS011;1209;48.410;9.054;2022-10-16T12:52:52;2.13;;;1.70;;
2396;SDS011;1209;48.410;9.054;2022-10-16T12:55:18;1.70;;;1.60;;
2396;SDS011;1209;48.410;9.054;2022-10-16T13:08:45;1.70;;;1.60;;
2396;SDS011;1209;48.410;9.054;2022-10-16T13:21:44;1.50;;;1.40;;
2396;SDS011;1209;48.410;9.054;2022-10-16T13:27:15;1.70;;;1.60;;
2396;SDS011;1209;48.410;9.054;2022-10-16T13:30:00;1.30;;;1.20;;
2396;SDS011;1209;48.410;9.054;2022-10-16T13:32:33;1.60;;;1.50;;
2396;SDS011;1209;48.410;9.054;2022-10-16T13:34:59;1.37;;;1.27;;
2396;SDS011;1209;48.410;9.054;2022-10-16T13:37:25;1.40;;;1.30;;
2396;SDS011;1209;48.410;9.054;2022-10-16T13:40:01;1.60;;;1.50;;
2396;SDS011;1209;48.410;9.054;2022-10-16T13:42:32;1.70;;;1.60;;
2396;SDS011;1209;48.410;9.054;2022-10-16T13:44:58;1.07;;;1.07;;
2396;SDS011;1209;48.410;9.054;2022-10-16T13:47:27;1.47;;;1.30;;
2396;SDS011;1209;48.410;9.054;2022-10-16T13:50:05;2.00;;;1.80;;
2396;SDS011;1209;48.410;9.054;2022-10-16T13:52:36;1.57;;;1.47;;
2396;SDS011;1209;48.410;9.054;2022-10-16T13:55:03;3.77;;;1.77;;
2396;SDS011;1209;48.410;9.054;2022-10-16T13:57:29;1.83;;;1.73;;
2396;SDS011;1209;48.410;9.054;2022-10-16T13:59:54;1.17;;;1.13;;
2396;SDS011;1209;48.410;9.054;2022-10-16T14:02:27;1.73;;;1.63;;
2396;SDS011;1209;48.410;9.054;2022-10-16T14:04:57;1.50;;;1.40;;
2396;SDS011;1209;48.410;9.054;2022-10-16T14:07:27;1.80;;;1.50;;
2396;SDS011;1209;48.410;9.054;2022-10-16T14:09:55;1.70;;;1.60;;
2396;SDS011;1209;48.410;9.054;2022-10-16T14:12:22;1.23;;;1.23;;
2396;SDS011;1209;48.410;9.054;2022-10-16T14:14:49;3.67;;;1.77;;
2396;SDS011;1209;48.410;9.054;2022-10-16T14:17:24;5.00;;;2.13;;
2396;SDS011;1209;48.410;9.054;2022-10-16T14:19:53;2.60;;;2.40;;
2396;SDS011;1209;48.410;9.054;2022-10-16T14:25:20;4.07;;;3.20;;
2396;SDS011;1209;48.410;9.054;2022-10-16T14:28:25;2.30;;;2.10;;
2396;SDS011;1209;48.410;9.054;2022-10-16T14:30:49;2.40;;;2.10;;
2396;SDS011;1209;48.410;9.054;2022-10-16T14:33:34;1.70;;;1.60;;
2396;SDS011;1209;48.410;9.054;2022-10-16T14:38:25;1.70;;;1.60;;
2396;SDS011;1209;48.410;9.054;2022-10-16T14:40:50;2.07;;;1.87;;
2396;SDS011;1209;48.410;9.054;2022-10-16T14:43:20;1.73;;;1.63;;
2396;SDS011;1209;48.410;9.054;2022-10-16T14:45:53;1.67;;;1.57;;
2396;SDS011;1209;48.410;9.054;2022-10-16T14:48:20;1.37;;;1.37;;
2396;SDS011;1209;48.410;9.054;2022-10-16T14:50:46;1.87;;;1.77;;
2396;SDS011;1209;48.410;9.054;2022-10-16T14:53:12;7.23;;;1.90;;
2396;SDS011;1209;48.410;9.054;2022-10-16T14:55:38;1.83;;;1.33;;
2396;SDS011;1209;48.410;9.054;2022-10-16T14:58:05;3.97;;;1.80;;
2396;SDS011;1209;48.410;9.054;2022-10-16T15:00:33;2.20;;;1.73;;
2396;SDS011;1209;48.410;9.054;2022-10-16T15:02:58;1.50;;;1.40;;
2396;SDS011;1209;48.410;9.054;2022-10-16T15:05:24;2.77;;;1.80;;
2396;SDS011;1209;48.410;9.054;2022-10-16T15:07:52;1.67;;;1.57;;
2396;SDS011;1209;48.410;9.054;2022-10-16T15:10:19;2.23;;;1.80;;
2396;SDS011;1209;48.410;9.054;2022-10-16T15:12:46;1.73;;;1.53;;
2396;SDS011;1209;48.410;9.054;2022-10-16T15:17:52;1.57;;;1.50;;
2396;SDS011;1209;48.410;9.054;2022-10-16T15:20:20;2.70;;;1.50;;
2396;SDS011;1209;48.410;9.054;2022-10-16T15:22:45;4.37;;;1.47;;
2396;SDS011;1209;48.410;9.054;2022-10-16T15:27:56;6.30;;;1.50;;
2396;SDS011;1209;48.410;9.054;2022-10-16T15:30:21;2.73;;;1.77;;
2396;SDS011;1209;48.410;9.054;2022-10-16T15:32:47;2.10;;;1.77;;
2396;SDS011;1209;48.410;9.054;2022-10-16T15:35:12;4.40;;;2.20;;
2396;SDS011;1209;48.410;9.054;2022-10-16T15:37:37;2.20;;;1.87;;
2396;SDS011;1209;48.410;9.054;2022-10-16T15:40:03;2.07;;;1.70;;
2396;SDS011;1209;48.410;9.054;2022-10-16T15:42:28;2.60;;;1.83;;
2396;SDS011;1209;48.410;9.054;2022-10-16T15:44:54;2.67;;;1.73;;
2396;SDS011;1209;48.410;9.054;2022-10-16T15:47:19;2.17;;;1.97;;
2396;SDS011;1209;48.410;9.054;2022-10-16T15:49:44;2.60;;;1.80;;
2396;SDS011;1209;48.410;9.054;2022-10-16T15:52:10;2.23;;;2.00;;
2396;SDS011;1209;48.410;9.054;2022-10-16T15:54:36;2.07;;;1.80;;
2396;SDS011;1209;48.410;9.054;2022-10-16T15:57:01;2.47;;;1.77;;
2396;SDS011;1209;48.410;9.054;2022-10-16T15:59:26;2.07;;;1.87;;
2396;SDS011;1209;48.410;9.054;2022-10-16T16:01:52;1.63;;;1.53;;
2396;SDS011;1209;48.410;9.054;2022-10-16T16:04:17;2.30;;;2.00;;
2396;SDS011;1209;48.410;9.054;2022-10-16T16:06:43;2.37;;;1.73;;
2396;SDS011;1209;48.410;9.054;2022-10-16T16:09:10;1.77;;;1.67;;
2396;SDS011;1209;48.410;9.054;2022-10-16T16:11:36;1.80;;;1.70;;
2396;SDS011;1209;48.410;9.054;2022-10-16T16:14:03;2.10;;;2.00;;
2396;SDS011;1209;48.410;9.054;2022-10-16T16:16:29;1.70;;;1.60;;
2396;SDS011;1209;48.410;9.054;2022-10-16T16:18:55;5.40;;;2.27;;
2396;SDS011;1209;48.410;9.054;2022-10-16T16:21:20;1.70;;;1.60;;
2396;SDS011;1209;48.410;9.054;2022-10-16T16:23:45;1.80;;;1.60;;
2396;SDS011;1209;48.410;9.054;2022-10-16T16:26:12;2.23;;;2.03;;
2396;SDS011;1209;48.410;9.054;2022-10-16T16:28:39;1.60;;;1.50;;
2396;SDS011;1209;48.410;9.054;2022-10-16T16:31:06;3.20;;;2.03;;
2396;SDS011;1209;48.410;9.054;2022-10-16T16:33:32;2.30;;;2.10;;
2396;SDS011;1209;48.410;9.054;2022-10-16T16:35:58;3.27;;;2.20;;
2396;SDS011;1209;48.410;9.054;2022-10-16T16:38:25;11.63;;;6.23;;
2396;SDS011;1209;48.410;9.054;2022-10-16T16:40:51;17.83;;;12.73;;
2396;SDS011;1209;48.410;9.054;2022-10-16T16:43:17;19.37;;;12.03;;
2396;SDS011;1209;48.410;9.054;2022-10-16T16:45:42;14.27;;;9.37;;
2396;SDS011;1209;48.410;9.054;2022-10-16T16:48:07;16.10;;;9.63;;
2396;SDS011;1209;48.410;9.054;2022-10-16T16:50:36;17.23;;;11.00;;
2396;SDS011;1209;48.410;9.054;2022-10-16T16:53:02;7.27;;;6.10;;
2396;SDS011;1209;48.410;9.054;2022-10-16T16:55:27;11.40;;;5.90;;
2396;SDS011;1209;48.410;9.054;2022-10-16T16:57:53;9.20;;;6.30;;
2396;SDS011;1209;48.410;9.054;2022-10-16T17:00:18;8.20;;;5.87;;
2396;SDS011;1209;48.410;9.054;2022-10-16T17:02:43;7.87;;;4.80;;
2396;SDS011;1209;48.410;9.054;2022-10-16T17:05:12;5.20;;;4.20;;
2396;SDS011;1209;48.410;9.054;2022-10-16T17:07:38;4.17;;;3.50;;
2396;SDS011;1209;48.410;9.054;2022-10-16T17:10:05;5.17;;;3.40;;
2396;SDS011;1209;48.410;9.054;2022-10-16T17:12:32;4.13;;;3.13;;
2396;SDS011;1209;48.410;9.054;2022-10-16T17:14:57;4.20;;;2.93;;
2396;SDS011;1209;48.410;9.054;2022-10-16T17:17:22;3.33;;;2.63;;
2396;SDS011;1209;48.410;9.054;2022-10-16T17:19:51;3.10;;;2.73;;